createdAt,value
2023-04-28T00:00:04.740Z,101433.81
2023-04-28T00:02:31.337Z,101452.34
2023-04-28T00:04:58.102Z,101447.94
2023-04-28T00:07:25.177Z,101455.63
2023-04-28T00:09:51.621Z,101456.41
2023-04-28T00:12:18.094Z,101446.94
2023-04-28T00:14:44.636Z,101429.75
2023-04-28T00:17:11.206Z,101424.75
2023-04-28T00:19:38.687Z,101428.38
2023-04-28T00:22:05.150Z,101424.16
2023-04-28T00:24:33.692Z,101415.41
2023-04-28T00:27:00.123Z,101402.38
2023-04-28T00:29:29.352Z,101401.63
2023-04-28T00:31:56.067Z,101398.19
2023-04-28T00:34:22.491Z,101386.72
2023-04-28T00:36:48.893Z,101387.50
2023-04-28T00:39:18.398Z,101384.00
2023-04-28T00:41:44.819Z,101376.19
2023-04-28T00:44:11.382Z,101387.41
2023-04-28T00:46:37.867Z,101393.63
2023-04-28T00:49:04.510Z,101393.66
2023-04-28T00:51:33.617Z,101387.69
2023-04-28T00:54:00.347Z,101379.06
2023-04-28T00:56:28.269Z,101370.44
2023-04-28T00:58:54.812Z,101375.50
2023-04-28T01:01:21.344Z,101370.31
2023-04-28T01:03:48.129Z,101368.72
2023-04-28T01:06:14.914Z,101363.66
2023-04-28T01:08:42.559Z,101361.88
2023-04-28T01:11:13.847Z,101360.88
2023-04-28T01:13:40.683Z,101353.94
2023-04-28T01:16:07.854Z,101353.94
2023-04-28T01:18:34.893Z,101357.31
2023-04-28T01:21:01.339Z,101358.16
2023-04-28T01:23:27.710Z,101355.56
2023-04-28T01:25:54.312Z,101353.88
2023-04-28T01:28:20.829Z,101353.94
2023-04-28T01:30:47.320Z,101347.91
2023-04-28T01:33:13.682Z,101345.44
2023-04-28T01:35:40.114Z,101345.47
2023-04-28T01:38:06.632Z,101344.56
2023-04-28T01:40:33.091Z,101333.34
2023-04-28T01:42:59.468Z,101332.53
2023-04-28T01:45:25.908Z,101328.19
2023-04-28T01:47:52.473Z,101323.91
2023-04-28T01:50:19.038Z,101317.00
2023-04-28T01:52:45.488Z,101310.94
2023-04-28T01:55:11.955Z,101305.84
2023-04-28T01:57:38.441Z,101309.47
2023-04-28T02:00:05.375Z,101304.38
2023-04-28T02:02:31.923Z,101313.13
2023-04-28T02:04:58.570Z,101296.75
2023-04-28T02:07:25.473Z,101301.91
2023-04-28T02:09:51.813Z,101300.09
2023-04-28T02:12:18.155Z,101305.22
2023-04-28T02:14:44.549Z,101300.91
2023-04-28T02:17:11.023Z,101303.38
2023-04-28T02:19:38.582Z,101296.38
2023-04-28T02:22:05.030Z,101292.00
2023-04-28T02:24:35.190Z,101289.47
2023-04-28T02:27:01.591Z,101282.59
2023-04-28T02:29:27.997Z,101275.72
2023-04-28T02:31:54.639Z,101271.38
2023-04-28T02:34:21.272Z,101273.88
2023-04-28T02:36:48.311Z,101258.41
2023-04-28T02:39:14.679Z,101268.78
2023-04-28T02:41:41.041Z,101262.84
2023-04-28T02:44:07.428Z,101267.19
2023-04-28T02:46:33.925Z,101255.00
2023-04-28T02:49:00.420Z,101256.75
2023-04-28T02:51:26.792Z,101251.66
2023-04-28T02:53:53.204Z,101242.13
2023-04-28T02:56:19.584Z,101244.69
2023-04-28T02:58:46.249Z,101230.03
2023-04-28T03:01:12.789Z,101226.63
2023-04-28T03:03:39.769Z,101219.72
2023-04-28T03:06:06.717Z,101218.06
2023-04-28T03:08:33.189Z,101223.25
2023-04-28T03:10:59.613Z,101215.38
2023-04-28T03:13:26.144Z,101213.47
2023-04-28T03:15:52.709Z,101217.03
2023-04-28T03:18:19.195Z,101210.19
2023-04-28T03:20:45.636Z,101208.56
2023-04-28T03:23:11.985Z,101199.88
2023-04-28T03:25:38.389Z,101203.28
2023-04-28T03:28:05.127Z,101203.38
2023-04-28T03:30:31.692Z,101200.69
2023-04-28T03:32:58.128Z,101195.53
2023-04-28T03:35:24.529Z,101192.88
2023-04-28T03:37:50.916Z,101186.00
2023-04-28T03:40:18.170Z,101184.22
2023-04-28T03:42:44.566Z,101183.22
2023-04-28T03:45:11.270Z,101174.72
2023-04-28T03:47:37.999Z,101176.69
2023-04-28T03:50:04.633Z,101175.97
2023-04-28T03:52:31.009Z,101179.53
2023-04-28T03:54:57.516Z,101180.47
2023-04-28T03:57:23.886Z,101174.63
2023-04-28T03:59:51.058Z,101183.47
2023-04-28T04:02:17.618Z,101166.41
2023-04-28T04:04:44.249Z,101165.47
2023-04-28T04:07:11.492Z,101164.69
2023-04-28T04:09:37.925Z,101158.63
2023-04-28T04:12:04.658Z,101154.22
2023-04-28T04:14:31.101Z,101161.03
2023-04-28T04:16:57.636Z,101150.72
2023-04-28T04:19:26.290Z,101144.56
2023-04-28T04:21:53.091Z,101141.97
2023-04-28T04:24:19.453Z,101130.75
2023-04-28T04:26:45.847Z,101140.34
2023-04-28T04:29:12.234Z,101141.06
2023-04-28T04:31:38.779Z,101140.28
2023-04-28T04:34:05.279Z,101139.25
2023-04-28T04:36:32.851Z,101133.91
2023-04-28T04:38:59.326Z,101132.97
2023-04-28T04:41:26.656Z,101120.75
2023-04-28T04:43:53.048Z,101119.75
2023-04-28T04:46:19.489Z,101125.81
2023-04-28T04:48:46.022Z,101117.06
2023-04-28T04:51:12.370Z,101119.53
2023-04-28T04:53:38.849Z,101122.91
2023-04-28T04:56:05.496Z,101117.63
2023-04-28T04:58:32.024Z,101111.56
2023-04-28T05:00:58.650Z,101110.84
2023-04-28T05:03:25.227Z,101098.13
2023-04-28T05:05:51.910Z,101101.56
2023-04-28T05:08:18.444Z,101099.78
2023-04-28T05:10:44.832Z,101097.94
2023-04-28T05:13:11.275Z,101103.13
2023-04-28T05:15:37.703Z,101100.47
2023-04-28T05:18:09.810Z,101104.66
2023-04-28T05:20:36.581Z,101100.88
2023-04-28T05:23:03.294Z,101103.25
2023-04-28T05:25:29.712Z,101097.06
2023-04-28T05:27:56.242Z,101099.44
2023-04-28T05:30:22.751Z,101097.66
2023-04-28T05:32:49.188Z,101107.03
2023-04-28T05:35:15.616Z,101109.56
2023-04-28T05:37:43.632Z,101111.13
2023-04-28T05:40:10.481Z,101121.47
2023-04-28T05:42:36.868Z,101120.53
2023-04-28T05:45:03.382Z,101116.31
2023-04-28T05:47:31.057Z,101115.59
2023-04-28T05:49:57.495Z,101108.06
2023-04-28T05:52:23.948Z,101098.63
2023-04-28T05:54:50.490Z,101106.38
2023-04-28T05:57:16.907Z,101105.53
2023-04-28T05:59:43.642Z,101108.25
2023-04-28T06:02:10.168Z,101121.41
2023-04-28T06:04:36.810Z,101118.09
2023-04-28T06:07:03.474Z,101123.31
2023-04-28T06:09:29.929Z,101119.91
2023-04-28T06:11:56.331Z,101119.91
2023-04-28T06:14:23.062Z,101113.88
2023-04-28T06:16:50.753Z,101101.72
2023-04-28T06:19:18.835Z,101093.94
2023-04-28T06:21:46.284Z,101094.06
2023-04-28T06:24:12.741Z,101084.13
2023-04-28T06:26:39.081Z,101082.31
2023-04-28T06:29:05.455Z,101088.03
2023-04-28T06:31:31.988Z,101079.88
2023-04-28T06:33:58.422Z,101076.06
2023-04-28T06:36:24.881Z,101073.50
2023-04-28T06:38:51.406Z,101072.44
2023-04-28T06:41:17.785Z,101077.63
2023-04-28T06:43:44.185Z,101072.28
2023-04-28T06:46:13.701Z,101073.81
2023-04-28T06:48:40.423Z,101075.22
2023-04-28T06:51:06.867Z,101081.03
2023-04-28T06:53:33.662Z,101079.84
2023-04-28T06:56:00.141Z,101074.47
2023-04-28T06:58:26.852Z,101065.63
2023-04-28T07:00:53.539Z,101069.91
2023-04-28T07:03:20.114Z,101064.59
2023-04-28T07:05:46.660Z,101059.13
2023-04-28T07:08:13.415Z,101048.72
2023-04-28T07:10:40.141Z,101047.81
2023-04-28T07:13:06.855Z,101060.31
2023-04-28T07:15:33.262Z,101058.97
2023-04-28T07:18:00.198Z,101051.78
2023-04-28T07:20:26.723Z,101060.88
2023-04-28T07:22:53.162Z,101066.56
2023-04-28T07:25:20.371Z,101064.34
2023-04-28T07:27:47.113Z,101066.41
2023-04-28T07:30:26.437Z,101068.66
2023-04-28T07:32:53.554Z,101071.94
2023-04-28T07:35:20.008Z,101068.28
2023-04-28T07:37:46.480Z,101069.75
2023-04-28T07:40:13.077Z,101070.38
2023-04-28T07:42:39.574Z,101070.78
2023-04-28T07:45:06.654Z,101066.28
2023-04-28T07:47:33.393Z,101064.38
2023-04-28T07:50:03.251Z,101051.69
2023-04-28T07:52:29.669Z,101049.56
2023-04-28T07:54:56.113Z,101045.13
2023-04-28T07:57:22.577Z,101050.09
2023-04-28T07:59:48.965Z,101046.50
2023-04-28T08:02:15.772Z,101047.88
2023-04-28T08:04:43.466Z,101047.63
2023-04-28T08:07:09.897Z,101048.03
2023-04-28T08:09:36.437Z,101049.72
2023-04-28T08:12:03.151Z,101034.22
2023-04-28T08:14:29.595Z,101037.84
2023-04-28T08:16:56.907Z,101043.94
2023-04-28T08:19:23.580Z,101043.81
2023-04-28T08:21:49.983Z,101046.25
2023-04-28T08:24:16.839Z,101055.00
2023-04-28T08:26:43.507Z,101053.22
2023-04-28T08:29:10.034Z,101054.16
2023-04-28T08:31:37.005Z,101058.50
2023-04-28T08:34:03.607Z,101058.38
2023-04-28T08:36:32.581Z,101050.56
2023-04-28T08:39:01.051Z,101043.66
2023-04-28T08:41:29.433Z,101046.00
2023-04-28T08:43:56.358Z,101041.50
2023-04-28T08:46:24.097Z,101038.19
2023-04-28T08:48:51.887Z,101041.91
2023-04-28T08:51:44.160Z,101039.59
2023-04-28T08:54:25.273Z,101048.66
2023-04-28T08:56:57.096Z,101047.66
2023-04-28T08:59:24.006Z,101038.63
2023-04-28T09:01:50.641Z,101042.78
2023-04-28T09:04:18.366Z,101041.13
2023-04-28T09:06:48.429Z,101045.75
2023-04-28T09:09:36.245Z,101042.19
2023-04-28T09:12:04.930Z,101037.09
2023-04-28T09:14:33.264Z,101032.13
2023-04-28T09:17:00.761Z,101029.72
2023-04-28T09:19:37.701Z,101031.41
2023-04-28T09:22:17.575Z,101031.41
2023-04-28T09:24:44.672Z,101024.94
2023-04-28T09:27:11.944Z,101025.72
2023-04-28T09:29:39.199Z,101028.25
2023-04-28T09:32:23.460Z,101029.84
2023-04-28T09:34:52.317Z,101034.22
2023-04-28T09:37:20.759Z,101031.44
2023-04-28T09:39:50.629Z,101033.19
2023-04-28T09:42:37.071Z,101034.72
2023-04-28T09:45:04.550Z,101023.25
2023-04-28T09:47:33.411Z,101024.84
2023-04-28T09:50:02.362Z,101027.06
2023-04-28T09:52:28.775Z,101019.06
2023-04-28T09:54:56.805Z,101017.41
2023-04-28T09:57:23.580Z,101021.41
2023-04-28T09:59:51.701Z,101014.97
2023-04-28T10:02:42.715Z,101014.97
2023-04-28T10:05:10.462Z,101019.16
2023-04-28T10:07:39.145Z,101013.19
2023-04-28T10:10:07.720Z,101006.81
2023-04-28T10:12:35.074Z,101008.41
2023-04-28T10:15:02.122Z,101009.06
2023-04-28T10:17:29.543Z,101002.91
2023-04-28T10:19:57.186Z,101012.19
2023-04-28T10:22:42.930Z,101010.75
2023-04-28T10:25:12.320Z,101009.56
2023-04-28T10:27:40.515Z,101013.22
2023-04-28T10:30:26.702Z,101015.63
2023-04-28T10:33:26.931Z,101014.53
2023-04-28T10:35:53.722Z,101026.00
2023-04-28T10:38:24.100Z,101017.16
2023-04-28T10:40:54.256Z,101015.97
2023-04-28T10:43:29.746Z,101011.50
2023-04-28T10:46:04.915Z,101011.31
2023-04-28T10:48:34.305Z,101015.78
2023-04-28T10:51:07.535Z,101011.31
2023-04-28T10:53:47.152Z,101016.63
2023-04-28T10:56:27.316Z,101012.91
2023-04-28T10:58:56.943Z,101009.81
2023-04-28T11:01:29.547Z,101015.34
2023-04-28T11:04:16.847Z,101018.44
2023-04-28T11:06:45.948Z,101004.63
2023-04-28T11:09:12.324Z,101010.91
2023-04-28T11:11:40.269Z,101008.31
2023-04-28T11:14:19.055Z,101017.66
2023-04-28T11:17:05.964Z,101015.69
2023-04-28T11:19:40.716Z,101018.22
2023-04-28T11:22:15.194Z,101008.31
2023-04-28T11:24:42.088Z,101007.81
2023-04-28T11:27:08.765Z,101005.47
2023-04-28T11:29:37.657Z,101000.25
2023-04-28T11:32:09.531Z,100995.53
2023-04-28T11:34:37.534Z,100999.03
2023-04-28T11:37:05.849Z,101004.13
2023-04-28T11:39:34.177Z,101000.13
2023-04-28T11:42:02.822Z,101003.31
2023-04-28T11:44:30.903Z,100996.81
2023-04-28T11:47:03.252Z,101002.03
2023-04-28T11:49:43.916Z,101005.56
2023-04-28T11:52:11.126Z,101003.78
2023-04-28T11:54:38.288Z,101011.13
2023-04-28T11:57:05.890Z,101007.59
2023-04-28T11:59:35.897Z,101007.34
2023-04-28T12:02:05.107Z,101007.13
2023-04-28T12:04:38.459Z,101008.91
2023-04-28T12:07:18.304Z,101006.22
2023-04-28T12:10:12.240Z,100999.78
2023-04-28T12:12:49.846Z,101005.94
2023-04-28T12:15:20.651Z,101008.47
2023-04-28T12:17:48.250Z,101009.03
2023-04-28T12:20:35.224Z,101004.56
2023-04-28T12:23:02.665Z,101004.75
2023-04-28T12:25:29.437Z,101008.84
2023-04-28T12:28:07.663Z,101018.13
2023-04-28T12:30:38.727Z,101015.53
2023-04-28T12:33:05.384Z,101016.47
2023-04-28T12:35:33.217Z,101013.00
2023-04-28T12:37:59.816Z,101021.44
2023-04-28T12:40:26.410Z,101016.75
2023-04-28T12:42:52.952Z,101017.59
2023-04-28T12:45:19.699Z,101015.09
2023-04-28T12:47:46.355Z,101016.66
2023-04-28T12:50:12.880Z,101017.06
2023-04-28T12:52:39.339Z,101015.19
2023-04-28T12:55:06.501Z,101012.09
2023-04-28T12:57:32.925Z,101012.66
2023-04-28T12:59:59.337Z,101015.75
2023-04-28T13:02:25.880Z,101024.72
2023-04-28T13:04:53.471Z,101016.69
2023-04-28T13:07:20.228Z,101022.94
2023-04-28T13:09:47.624Z,101020.88
2023-04-28T13:12:14.911Z,101022.09
2023-04-28T13:14:41.769Z,101022.00
2023-04-28T13:17:09.102Z,101020.25
2023-04-28T13:19:35.635Z,101017.78
2023-04-28T13:22:04.914Z,101017.63
2023-04-28T13:24:33.290Z,101021.06
2023-04-28T13:26:59.981Z,101024.06
2023-04-28T13:29:26.437Z,101020.59
2023-04-28T13:31:52.854Z,101019.56
2023-04-28T13:34:19.275Z,101016.59
2023-04-28T13:36:47.896Z,101024.53
2023-04-28T13:39:14.844Z,101027.41
2023-04-28T13:41:41.575Z,101025.66
2023-04-28T13:44:09.362Z,101020.97
2023-04-28T13:46:35.935Z,101021.34
2023-04-28T13:49:02.427Z,101030.13
2023-04-28T13:51:28.913Z,101028.47
2023-04-28T13:53:55.366Z,101032.94
2023-04-28T13:56:21.913Z,101019.78
2023-04-28T13:58:48.412Z,101031.38
2023-04-28T14:01:15.009Z,101030.41
2023-04-28T14:03:42.055Z,101035.66
2023-04-28T14:06:08.553Z,101033.97
2023-04-28T14:08:35.088Z,101040.22
2023-04-28T14:11:01.557Z,101040.03
2023-04-28T14:13:27.956Z,101036.84
2023-04-28T14:15:58.985Z,101039.75
2023-04-28T14:18:26.885Z,101044.88
2023-04-28T14:20:54.468Z,101037.66
2023-04-28T14:23:22.570Z,101034.78
2023-04-28T14:25:49.131Z,101039.09
2023-04-28T14:28:16.245Z,101033.84
2023-04-28T14:30:42.755Z,101037.59
2023-04-28T14:33:09.210Z,101042.72
2023-04-28T14:35:35.771Z,101040.13
2023-04-28T14:38:03.640Z,101037.59
2023-04-28T14:40:30.145Z,101036.81
2023-04-28T14:42:56.574Z,101039.81
2023-04-28T14:45:23.053Z,101044.34
2023-04-28T14:47:49.691Z,101048.06
2023-04-28T14:50:16.784Z,101046.13
2023-04-28T14:52:43.199Z,101046.81
2023-04-28T14:55:10.384Z,101050.53
2023-04-28T14:57:37.704Z,101048.66
2023-04-28T15:00:05.524Z,101054.72
2023-04-28T15:02:32.318Z,101050.34
2023-04-28T15:04:58.949Z,101044.28
2023-04-28T15:07:31.132Z,101050.53
2023-04-28T15:10:00.902Z,101040.91
2023-04-28T15:12:30.192Z,101051.38
2023-04-28T15:14:59.700Z,101054.72
2023-04-28T15:17:26.291Z,101054.81
2023-04-28T15:19:52.751Z,101060.28
2023-04-28T15:22:19.204Z,101052.72
2023-04-28T15:24:45.672Z,101058.97
2023-04-28T15:27:12.150Z,101054.78
2023-04-28T15:29:38.667Z,101054.94
2023-04-28T15:32:05.471Z,101064.53
2023-04-28T15:34:31.868Z,101065.47
2023-04-28T15:36:58.253Z,101064.72
2023-04-28T15:39:25.660Z,101058.38
2023-04-28T15:41:52.886Z,101074.25
2023-04-28T15:44:19.465Z,101066.59
2023-04-28T15:46:45.924Z,101065.56
2023-04-28T15:49:12.407Z,101070.03
2023-04-28T15:51:38.824Z,101075.34
2023-04-28T15:54:05.599Z,101077.28
2023-04-28T15:56:32.289Z,101075.63
2023-04-28T15:58:58.846Z,101078.16
2023-04-28T16:01:25.236Z,101079.06
2023-04-28T16:03:51.905Z,101085.03
2023-04-28T16:06:18.460Z,101084.97
2023-04-28T16:08:44.852Z,101081.66
2023-04-28T16:11:17.683Z,101080.84
2023-04-28T16:13:44.985Z,101084.28
2023-04-28T16:16:12.297Z,101083.53
2023-04-28T16:18:39.352Z,101086.91
2023-04-28T16:21:06.332Z,101081.59
2023-04-28T16:23:32.832Z,101085.03
2023-04-28T16:25:59.250Z,101096.25
2023-04-28T16:28:26.783Z,101094.38
2023-04-28T16:30:53.150Z,101096.16
2023-04-28T16:33:19.586Z,101102.41
2023-04-28T16:35:53.569Z,101099.69
2023-04-28T16:38:20.105Z,101103.94
2023-04-28T16:40:46.549Z,101100.38
2023-04-28T16:43:15.709Z,101101.47
2023-04-28T16:45:43.523Z,101104.28
2023-04-28T16:48:09.963Z,101104.34
2023-04-28T16:50:37.718Z,101105.03
2023-04-28T16:53:05.130Z,101100.03
2023-04-28T16:55:31.738Z,101099.81
2023-04-28T16:57:58.146Z,101106.13
2023-04-28T17:00:24.557Z,101114.13
2023-04-28T17:02:51.124Z,101116.09
2023-04-28T17:05:17.993Z,101114.47
2023-04-28T17:07:44.447Z,101117.06
2023-04-28T17:10:11.075Z,101120.72
2023-04-28T17:12:37.657Z,101113.88
2023-04-28T17:15:04.483Z,101122.81
2023-04-28T17:17:31.027Z,101119.44
2023-04-28T17:19:59.805Z,101120.13
2023-04-28T17:22:26.309Z,101120.47
2023-04-28T17:24:52.710Z,101126.03
2023-04-28T17:27:19.163Z,101134.38
2023-04-28T17:29:45.779Z,101126.75
2023-04-28T17:32:12.476Z,101136.03
2023-04-28T17:34:39.140Z,101135.50
2023-04-28T17:37:05.759Z,101139.88
2023-04-28T17:39:32.320Z,101140.66
2023-04-28T17:41:59.768Z,101145.09
2023-04-28T17:44:26.325Z,101146.06
2023-04-28T17:46:52.796Z,101149.81
2023-04-28T17:49:19.318Z,101147.78
2023-04-28T17:51:45.833Z,101150.69
2023-04-28T17:54:12.333Z,101147.50
2023-04-28T17:56:39.080Z,101163.16
2023-04-28T17:59:06.119Z,101157.19
2023-04-28T18:01:34.907Z,101166.06
2023-04-28T18:04:01.412Z,101171.28
2023-04-28T18:06:28.949Z,101162.78
2023-04-28T18:08:55.596Z,101172.31
2023-04-28T18:11:22.844Z,101176.75
2023-04-28T18:13:49.343Z,101174.97
2023-04-28T18:16:15.866Z,101175.22
2023-04-28T18:18:42.264Z,101183.28
2023-04-28T18:21:09.336Z,101179.16
2023-04-28T18:23:35.726Z,101181.84
2023-04-28T18:26:02.178Z,101181.84
2023-04-28T18:28:28.631Z,101188.16
2023-04-28T18:30:54.993Z,101181.25
2023-04-28T18:33:23.381Z,101183.09
2023-04-28T18:36:05.324Z,101186.38
2023-04-28T18:38:34.378Z,101189.16
2023-04-28T18:41:02.116Z,101195.38
2023-04-28T18:43:28.602Z,101198.03
2023-04-28T18:45:55.023Z,101188.38
2023-04-28T18:48:21.738Z,101193.44
2023-04-28T18:50:48.595Z,101187.78
2023-04-28T18:53:15.590Z,101198.50
2023-04-28T18:55:42.026Z,101196.19
2023-04-28T18:58:08.531Z,101204.16
2023-04-28T19:00:37.054Z,101200.72
2023-04-28T19:03:04.096Z,101199.03
2023-04-28T19:05:30.809Z,101201.72
2023-04-28T19:07:57.170Z,101201.88
2023-04-28T19:10:23.624Z,101205.38
2023-04-28T19:12:50.027Z,101207.16
2023-04-28T19:15:17.293Z,101209.03
2023-04-28T19:17:46.618Z,101213.41
2023-04-28T19:20:13.435Z,101228.28
2023-04-28T19:22:44.407Z,101232.78
2023-04-28T19:25:11.572Z,101229.28
2023-04-28T19:27:40.063Z,101236.41
2023-04-28T19:30:08.888Z,101242.53
2023-04-28T19:32:35.659Z,101246.19
2023-04-28T19:35:04.145Z,101249.72
2023-04-28T19:37:31.607Z,101251.41
2023-04-28T19:39:58.048Z,101260.97
2023-04-28T19:42:24.523Z,101265.34
2023-04-28T19:44:55.665Z,101270.72
2023-04-28T19:47:23.953Z,101269.16
2023-04-28T19:49:51.862Z,101267.44
2023-04-28T19:52:20.660Z,101270.06
2023-04-28T19:54:48.372Z,101279.47
2023-04-28T19:57:16.243Z,101278.72
2023-04-28T19:59:42.892Z,101283.19
2023-04-28T20:02:10.101Z,101280.69
2023-04-28T20:04:37.907Z,101287.78
2023-04-28T20:07:05.489Z,101286.91
2023-04-28T20:09:35.962Z,101284.50
2023-04-28T20:12:07.655Z,101290.81
2023-04-28T20:14:34.901Z,101295.31
2023-04-28T20:17:03.629Z,101302.56
2023-04-28T20:19:30.712Z,101297.34
2023-04-28T20:21:57.240Z,101303.41
2023-04-28T20:24:23.831Z,101306.16
2023-04-28T20:26:50.640Z,101302.72
2023-04-28T20:29:17.803Z,101311.56
2023-04-28T20:31:44.327Z,101312.75
2023-04-28T20:34:10.745Z,101319.13
2023-04-28T20:36:37.875Z,101315.69
2023-04-28T20:39:05.027Z,101322.78
2023-04-28T20:41:32.581Z,101324.59
2023-04-28T20:43:58.997Z,101332.63
2023-04-28T20:46:25.576Z,101334.44
2023-04-28T20:48:51.962Z,101337.88
2023-04-28T20:51:18.319Z,101345.78
2023-04-28T20:53:44.718Z,101345.56
2023-04-28T20:56:11.201Z,101352.44
2023-04-28T20:58:37.774Z,101350.00
2023-04-28T21:01:04.304Z,101356.19
2023-04-28T21:03:30.999Z,101358.69
2023-04-28T21:05:57.410Z,101358.00
2023-04-28T21:08:23.833Z,101353.75
2023-04-28T21:10:50.335Z,101359.81
2023-04-28T21:13:16.897Z,101369.44
2023-04-28T21:15:43.490Z,101368.56
2023-04-28T21:18:10.088Z,101361.06
2023-04-28T21:20:36.582Z,101373.09
2023-04-28T21:23:03.091Z,101367.16
2023-04-28T21:25:29.933Z,101359.50
2023-04-28T21:27:56.425Z,101370.72
2023-04-28T21:30:22.963Z,101374.44
2023-04-28T21:32:49.606Z,101372.75
2023-04-28T21:35:18.948Z,101378.72
2023-04-28T21:37:45.458Z,101377.88
2023-04-28T21:40:12.181Z,101381.25
2023-04-28T21:42:38.690Z,101388.91
2023-04-28T21:45:07.251Z,101390.75
2023-04-28T21:47:33.752Z,101394.59
2023-04-28T21:50:00.318Z,101399.09
2023-04-28T21:52:26.824Z,101400.00
2023-04-28T21:54:53.875Z,101390.56
2023-04-28T21:57:20.325Z,101391.66
2023-04-28T21:59:47.500Z,101391.72
2023-04-28T22:02:14.062Z,101402.25
2023-04-28T22:04:40.920Z,101404.91
2023-04-28T22:07:07.897Z,101405.09
2023-04-28T22:09:34.417Z,101407.75
2023-04-28T22:12:00.826Z,101409.78
2023-04-28T22:14:40.525Z,101408.28
2023-04-28T22:17:07.653Z,101408.34
2023-04-28T22:19:34.288Z,101404.16
2023-04-28T22:22:00.794Z,101410.34
2023-04-28T22:24:27.805Z,101413.72
2023-04-28T22:26:54.926Z,101416.44
2023-04-28T22:29:21.758Z,101418.31
2023-04-28T22:31:48.376Z,101422.53
2023-04-28T22:34:14.892Z,101419.19
2023-04-28T22:36:41.492Z,101422.78
2023-04-28T22:39:08.149Z,101422.94
2023-04-28T22:41:34.503Z,101426.34
2023-04-28T22:44:00.927Z,101436.78
2023-04-28T22:46:28.623Z,101430.69
2023-04-28T22:48:55.170Z,101430.63
2023-04-28T22:51:21.878Z,101443.63
2023-04-28T22:53:48.916Z,101435.78
2023-04-28T22:56:15.824Z,101429.59
2023-04-28T22:58:42.310Z,101436.56
2023-04-28T23:01:09.208Z,101438.19
2023-04-28T23:03:36.034Z,101435.59
2023-04-28T23:06:02.603Z,101433.91
2023-04-28T23:08:29.076Z,101440.13
2023-04-28T23:10:58.894Z,101444.53
2023-04-28T23:13:25.968Z,101448.94
2023-04-28T23:15:52.661Z,101438.53
2023-04-28T23:18:19.177Z,101448.16
2023-04-28T23:20:49.035Z,101446.56
2023-04-28T23:23:16.039Z,101448.41
2023-04-28T23:25:45.300Z,101455.38
2023-04-28T23:28:11.824Z,101458.03
2023-04-28T23:30:40.790Z,101469.09
2023-04-28T23:33:07.170Z,101470.03
2023-04-28T23:35:33.567Z,101474.41
2023-04-28T23:38:00.004Z,101471.88
2023-04-28T23:40:27.087Z,101474.34
2023-04-28T23:42:54.382Z,101479.50
2023-04-28T23:45:20.809Z,101482.03
2023-04-28T23:47:47.805Z,101488.00
2023-04-28T23:50:14.405Z,101484.63
2023-04-28T23:52:41.053Z,101488.94
2023-04-28T23:55:12.818Z,101486.22
2023-04-28T23:57:39.836Z,101491.41
